Time;durP1;ratioP1;P1;durP2;ratioP2;P2;SDS_P1;SDS_P2;PMS_P1;PMS_P2;Temp;Humidity;BMP_temperature;BMP_pressure;BME280_temperature;BME280_humidity;BME280_pressure;Samples;Min_cycle;Max_cycle;Signal;HPM_P1;HPM_P2
2023/09/30 00:01:31;;;;;;;3.47;1.98;;;16.50;11.00;;;;;;7393193;19;20470;-69
2023/09/30 00:04:02;;;;;;;4.57;2.33;;;16.50;14.40;;;;;;7395358;19;22377;-69
2023/09/30 00:06:35;;;;;;;2.90;1.88;;;16.50;13.10;;;;;;7392491;19;20105;-69
2023/09/30 00:09:06;;;;;;;5.60;2.50;;;16.50;13.70;;;;;;7395069;19;20050;-69
2023/09/30 00:11:37;;;;;;;5.05;2.08;;;16.40;12.50;;;;;;7393319;19;20066;-69
2023/09/30 00:14:08;;;;;;;4.32;2.28;;;16.40;13.90;;;;;;7393715;19;20167;-68
2023/09/30 00:16:38;;;;;;;2.70;1.65;;;16.30;14.00;;;;;;7391992;19;20031;-69
2023/09/30 00:19:09;;;;;;;3.38;2.08;;;16.30;16.10;;;;;;7393486;19;20054;-69
2023/09/30 00:21:41;;;;;;;3.15;1.95;;;16.20;16.30;;;;;;7392596;19;20018;-68
2023/09/30 00:24:11;;;;;;;5.22;2.53;;;16.20;18.10;;;;;;7393953;19;20015;-68
2023/09/30 00:26:42;;;;;;;5.03;2.10;;;16.10;19.00;;;;;;7392647;19;20014;-69
2023/09/30 00:29:12;;;;;;;3.60;1.90;;;16.00;16.80;;;;;;7393811;19;20078;-69
2023/09/30 00:31:41;;;;;;;3.35;2.03;;;16.00;14.40;;;;;;7393191;19;20010;-68
2023/09/30 00:34:11;;;;;;;6.90;2.17;;;16.00;13.40;;;;;;7393144;19;20459;-68
2023/09/30 00:36:44;;;;;;;2.55;1.92;;;16.00;14.10;;;;;;7392607;19;20074;-68
2023/09/30 00:39:14;;;;;;;3.95;2.00;;;15.90;12.70;;;;;;7393469;19;20505;-69
2023/09/30 00:41:44;;;;;;;5.25;2.10;;;15.90;12.90;;;;;;7392569;19;20025;-69
2023/09/30 00:44:14;;;;;;;4.90;2.33;;;15.90;13.90;;;;;;7393250;19;20018;-69
2023/09/30 00:46:44;;;;;;;3.40;2.15;;;15.90;12.60;;;;;;7392057;19;20085;-69
2023/09/30 00:49:18;;;;;;;4.95;2.80;;;15.80;15.50;;;;;;7393288;19;20022;-69
2023/09/30 00:51:52;;;;;;;3.05;2.30;;;15.80;13.60;;;;;;7392130;19;20811;-69
2023/09/30 00:54:23;;;;;;;5.00;2.80;;;15.80;15.30;;;;;;7392947;19;20010;-69
2023/09/30 00:56:55;;;;;;;5.15;2.75;;;15.80;15.70;;;;;;7392212;19;20089;-69
2023/09/30 00:59:26;;;;;;;6.93;2.60;;;15.80;15.40;;;;;;7391487;19;20126;-69
2023/09/30 01:02:00;;;;;;;4.13;2.40;;;15.80;15.40;;;;;;7392081;19;20024;-69
2023/09/30 01:04:30;;;;;;;5.43;2.65;;;15.80;15.60;;;;;;7391039;19;20026;-69
2023/09/30 01:07:04;;;;;;;4.05;2.45;;;15.80;17.20;;;;;;7392343;19;20078;-69
2023/09/30 01:09:34;;;;;;;3.70;2.70;;;15.80;17.90;;;;;;7392642;19;20035;-69
2023/09/30 01:12:04;;;;;;;5.35;2.85;;;15.70;17.30;;;;;;7392430;19;20010;-69
2023/09/30 01:14:38;;;;;;;4.60;2.67;;;15.70;20.20;;;;;;7392426;19;20010;-69
2023/09/30 01:17:13;;;;;;;3.60;2.38;;;15.70;20.30;;;;;;7391474;19;20077;-69
2023/09/30 01:19:43;;;;;;;5.10;2.83;;;15.70;20.60;;;;;;7392673;19;20018;-69
2023/09/30 01:22:16;;;;;;;3.97;2.88;;;15.70;21.20;;;;;;7392386;19;20018;-69
2023/09/30 01:24:47;;;;;;;5.80;3.23;;;15.70;20.10;;;;;;7392480;19;20014;-69
2023/09/30 01:27:18;;;;;;;6.45;3.20;;;15.70;20.10;;;;;;7391049;19;20440;-69
2023/09/30 01:29:48;;;;;;;4.93;2.97;;;15.70;21.40;;;;;;7391630;19;20034;-69
2023/09/30 01:32:18;;;;;;;7.25;3.17;;;15.70;21.10;;;;;;7391057;19;20032;-68
2023/09/30 01:34:48;;;;;;;4.68;3.47;;;15.70;23.00;;;;;;7391946;19;20410;-68
2023/09/30 01:37:20;;;;;;;6.07;3.10;;;15.60;23.80;;;;;;7391144;19;20015;-69
2023/09/30 01:39:54;;;;;;;6.82;3.50;;;15.50;25.50;;;;;;7391990;19;20022;-69
2023/09/30 01:42:24;;;;;;;6.07;3.10;;;15.50;29.00;;;;;;7389460;19;20043;-68
2023/09/30 01:44:56;;;;;;;6.00;3.67;;;15.50;29.40;;;;;;7390847;19;20018;-69
2023/09/30 01:47:26;;;;;;;9.57;3.63;;;15.50;29.10;;;;;;7391572;19;20011;-69
2023/09/30 01:49:56;;;;;;;6.53;3.58;;;15.60;28.30;;;;;;7391942;19;20439;-69
2023/09/30 01:52:30;;;;;;;7.28;3.47;;;15.60;24.70;;;;;;7392126;19;20015;-69
2023/09/30 01:55:00;;;;;;;6.05;3.78;;;15.60;25.20;;;;;;7390999;19;20413;-69
2023/09/30 01:57:30;;;;;;;7.88;4.07;;;15.60;26.10;;;;;;7391219;19;20085;-68
2023/09/30 02:00:00;;;;;;;5.05;3.90;;;15.60;25.80;;;;;;7391653;19;20011;-69
2023/09/30 02:02:30;;;;;;;8.00;4.47;;;15.60;26.30;;;;;;7391362;19;20035;-68
2023/09/30 02:05:00;;;;;;;7.03;4.43;;;15.40;26.50;;;;;;7390560;19;20018;-68
2023/09/30 02:07:33;;;;;;;7.00;4.20;;;15.40;30.00;;;;;;7391574;19;20085;-69
2023/09/30 02:10:03;;;;;;;6.57;4.03;;;15.30;33.70;;;;;;7390523;19;20018;-71
2023/09/30 02:12:35;;;;;;;6.72;4.30;;;15.20;37.90;;;;;;7390648;19;20033;-69
2023/09/30 02:15:07;;;;;;;6.80;4.28;;;15.20;42.00;;;;;;7390190;19;20018;-69
2023/09/30 02:17:37;;;;;;;7.75;4.68;;;15.10;43.90;;;;;;7388965;19;20018;-69
2023/09/30 02:20:12;;;;;;;7.88;4.25;;;15.10;47.30;;;;;;7390466;19;20018;-69
2023/09/30 02:22:47;;;;;;;8.05;4.45;;;15.00;51.50;;;;;;7389978;19;20018;-69
2023/09/30 02:25:18;;;;;;;6.53;4.40;;;15.00;54.40;;;;;;7389191;19;20019;-69
2023/09/30 02:27:47;;;;;;;7.18;4.60;;;14.90;58.90;;;;;;7389926;19;20011;-69
2023/09/30 02:30:18;;;;;;;6.03;4.40;;;14.90;60.90;;;;;;7389134;19;20039;-69
2023/09/30 02:32:48;;;;;;;7.88;5.00;;;14.90;61.00;;;;;;7390671;19;20015;-69
2023/09/30 02:35:20;;;;;;;6.72;4.55;;;14.90;60.40;;;;;;7389570;19;20019;-69
2023/09/30 02:37:54;;;;;;;6.68;4.20;;;14.90;62.50;;;;;;7390068;19;20558;-69
2023/09/30 02:40:24;;;;;;;7.45;4.32;;;14.90;62.60;;;;;;7389253;19;20025;-69
2023/09/30 02:42:54;;;;;;;8.45;4.60;;;14.90;63.60;;;;;;7389476;19;20006;-69
2023/09/30 02:45:24;;;;;;;8.82;4.68;;;14.90;65.70;;;;;;7388370;19;20010;-69
2023/09/30 02:47:54;;;;;;;7.07;4.38;;;14.80;66.30;;;;;;7389222;19;20025;-69
2023/09/30 02:50:24;;;;;;;9.07;4.80;;;14.80;69.10;;;;;;7388604;19;20029;-69
2023/09/30 02:52:59;;;;;;;8.50;4.70;;;14.80;72.40;;;;;;7390299;19;20021;-69
2023/09/30 02:55:29;;;;;;;8.27;4.50;;;14.80;70.20;;;;;;7387252;19;20023;-69
2023/09/30 02:58:00;;;;;;;6.65;4.78;;;14.80;70.00;;;;;;7389415;19;20433;-69
2023/09/30 03:00:32;;;;;;;6.63;3.90;;;14.80;69.00;;;;;;7387393;19;20021;-69
2023/09/30 03:03:04;;;;;;;6.20;4.97;;;14.70;69.40;;;;;;7389341;19;20014;-69
2023/09/30 03:05:34;;;;;;;8.98;5.15;;;14.70;70.10;;;;;;7388210;19;20031;-69
2023/09/30 03:08:07;;;;;;;9.82;4.63;;;14.70;72.80;;;;;;7389765;19;20031;-69
2023/09/30 03:10:40;;;;;;;6.88;4.85;;;14.70;72.40;;;;;;7386766;19;20014;-69
2023/09/30 03:13:10;;;;;;;11.23;5.60;;;14.70;71.40;;;;;;7389492;19;20078;-69
2023/09/30 03:15:40;;;;;;;7.43;4.53;;;14.70;70.90;;;;;;7387360;19;20015;-69
2023/09/30 03:18:11;;;;;;;6.38;4.45;;;14.70;68.60;;;;;;7389647;19;20073;-69
2023/09/30 03:20:43;;;;;;;7.68;5.22;;;14.70;68.90;;;;;;7386057;19;20018;-69
2023/09/30 03:23:16;;;;;;;8.35;4.53;;;14.70;69.00;;;;;;7394498;19;20022;-69
2023/09/30 03:25:46;;;;;;;7.95;4.90;;;14.70;67.40;;;;;;7394605;19;20024;-69
2023/09/30 03:28:16;;;;;;;8.40;4.97;;;14.70;68.20;;;;;;7395729;19;20031;-69
2023/09/30 03:30:46;;;;;;;8.57;5.22;;;14.70;68.10;;;;;;7394447;19;20090;-69
2023/09/30 03:33:17;;;;;;;8.93;4.72;;;14.70;67.00;;;;;;7395767;19;20015;-68
2023/09/30 03:35:47;;;;;;;10.63;4.93;;;14.70;70.50;;;;;;7394093;19;20459;-68
2023/09/30 03:38:19;;;;;;;7.93;4.80;;;14.70;71.10;;;;;;7395488;19;20018;-69
2023/09/30 03:40:50;;;;;;;9.23;5.32;;;14.70;70.00;;;;;;7394156;19;20018;-69
2023/09/30 03:43:20;;;;;;;10.73;5.80;;;14.70;70.40;;;;;;7395030;19;20035;-69
2023/09/30 03:45:50;;;;;;;6.95;5.15;;;14.70;70.40;;;;;;7394185;19;20019;-69
2023/09/30 03:48:20;;;;;;;7.97;5.07;;;14.70;68.30;;;;;;7395279;19;20011;-69
2023/09/30 03:50:52;;;;;;;9.07;5.03;;;14.70;70.30;;;;;;7394426;19;20018;-68
2023/09/30 03:53:26;;;;;;;7.55;4.70;;;14.70;71.90;;;;;;7395098;19;20082;-69
2023/09/30 03:55:56;;;;;;;12.02;5.28;;;14.80;71.30;;;;;;7394229;19;20035;-69
2023/09/30 03:58:26;;;;;;;7.10;4.68;;;14.80;71.80;;;;;;7395574;19;20018;-69
2023/09/30 04:00:56;;;;;;;6.43;4.28;;;14.80;66.10;;;;;;7393793;19;20073;-69
2023/09/30 04:03:27;;;;;;;6.63;4.68;;;14.90;66.00;;;;;;7393053;19;20019;-69
2023/09/30 04:05:57;;;;;;;9.15;4.38;;;14.90;66.40;;;;;;7392952;19;20017;-69
2023/09/30 04:08:29;;;;;;;10.07;4.97;;;15.00;59.60;;;;;;7393168;19;20093;-69
2023/09/30 04:10:59;;;;;;;9.95;4.90;;;15.00;55.60;;;;;;7392893;19;20030;-69
2023/09/30 04:13:30;;;;;;;6.82;5.07;;;15.10;52.90;;;;;;7393275;19;20018;-69
2023/09/30 04:16:01;;;;;;;8.10;5.25;;;15.00;53.50;;;;;;7391360;19;20021;-69
2023/09/30 04:18:31;;;;;;;7.65;5.53;;;15.10;54.50;;;;;;7392063;19;20137;-69
2023/09/30 04:21:01;;;;;;;7.03;4.60;;;15.00;56.10;;;;;;7393838;19;20413;-70
2023/09/30 04:23:36;;;;;;;9.48;4.47;;;15.00;57.10;;;;;;7394174;19;20082;-69
2023/09/30 04:26:06;;;;;;;;;;;15.10;57.80;;;;;;7393697;19;20465;-69
2023/09/30 04:28:36;;;;;;;7.63;4.55;;;15.10;55.10;;;;;;7393734;19;19989;-70
2023/09/30 04:31:07;;;;;;;8.15;4.55;;;15.10;51.40;;;;;;7393008;19;20014;-70
2023/09/30 04:33:37;;;;;;;8.27;4.50;;;15.10;53.30;;;;;;7391143;19;20522;-70
2023/09/30 04:36:08;;;;;;;9.32;4.72;;;15.10;53.50;;;;;;7393062;19;20018;-69
2023/09/30 04:38:41;;;;;;;7.82;4.68;;;15.10;49.40;;;;;;7393458;19;20015;-69
2023/09/30 04:41:11;;;;;;;5.60;4.35;;;15.10;52.20;;;;;;7393561;19;20025;-70
2023/09/30 04:43:43;;;;;;;9.65;4.25;;;15.10;54.30;;;;;;7393250;19;20039;-70
2023/09/30 04:46:15;;;;;;;6.20;4.35;;;15.10;55.50;;;;;;7392696;19;20015;-70
2023/09/30 04:48:48;;;;;;;5.90;3.67;;;15.00;57.00;;;;;;7393190;19;20105;-70
2023/09/30 04:51:18;;;;;;;7.63;4.57;;;15.10;56.80;;;;;;7392507;19;20006;-69
2023/09/30 04:53:51;;;;;;;8.55;4.47;;;15.10;55.70;;;;;;7390841;19;20014;-70
2023/09/30 04:56:21;;;;;;;6.07;4.45;;;15.10;54.00;;;;;;7392191;19;20010;-69
2023/09/30 04:58:51;;;;;;;7.22;4.60;;;15.10;56.40;;;;;;7391287;19;20022;-70
2023/09/30 05:01:21;;;;;;;7.80;4.80;;;15.00;56.50;;;;;;7392079;19;20081;-69
2023/09/30 05:03:51;;;;;;;5.85;4.07;;;15.00;56.30;;;;;;7392489;19;20018;-69
2023/09/30 05:06:21;;;;;;;7.68;4.32;;;15.10;56.60;;;;;;7391173;19;20029;-70
2023/09/30 05:08:55;;;;;;;7.45;5.13;;;15.00;56.80;;;;;;7392219;19;20025;-69
2023/09/30 05:11:25;;;;;;;6.05;4.60;;;15.00;59.30;;;;;;7392023;19;20026;-69
2023/09/30 05:13:55;;;;;;;10.95;6.15;;;15.00;62.80;;;;;;7392254;19;20484;-70
2023/09/30 05:16:26;;;;;;;7.25;4.70;;;15.00;64.10;;;;;;7391949;19;20010;-69
2023/09/30 05:18:56;;;;;;;7.65;5.18;;;14.90;65.00;;;;;;7391936;19;20443;-70
2023/09/30 05:21:26;;;;;;;7.78;5.43;;;14.90;69.40;;;;;;7391734;19;20022;-69
2023/09/30 05:23:59;;;;;;;11.18;5.57;;;14.90;72.90;;;;;;7391315;19;20035;-70
2023/09/30 05:26:29;;;;;;;6.10;4.72;;;14.90;72.50;;;;;;7390961;19;20082;-69
2023/09/30 05:28:59;;;;;;;9.63;5.13;;;14.90;73.20;;;;;;7391883;19;20499;-69
2023/09/30 05:31:29;;;;;;;8.20;5.07;;;14.80;70.90;;;;;;7390396;19;20415;-70
2023/09/30 05:34:00;;;;;;;10.35;5.45;;;14.80;76.00;;;;;;7391979;19;20061;-69
2023/09/30 05:36:30;;;;;;;9.05;5.45;;;14.80;75.50;;;;;;7390664;19;20023;-70
2023/09/30 05:39:04;;;;;;;8.95;4.65;;;14.80;77.50;;;;;;7391629;19;20047;-69
2023/09/30 05:41:34;;;;;;;9.07;6.00;;;14.80;77.80;;;;;;7390724;19;20533;-69
2023/09/30 05:44:04;;;;;;;9.32;5.28;;;14.70;76.00;;;;;;7390287;19;20081;-69
2023/09/30 05:46:34;;;;;;;9.07;4.75;;;14.70;79.40;;;;;;7390246;19;20020;-69
2023/09/30 05:49:09;;;;;;;6.13;4.68;;;14.70;85.60;;;;;;7391585;19;20006;-69
2023/09/30 05:51:40;;;;;;;9.32;5.63;;;14.70;88.00;;;;;;7390922;19;20019;-69
2023/09/30 05:54:13;;;;;;;10.95;5.05;;;14.80;85.40;;;;;;7389384;19;20019;-69
2023/09/30 05:56:44;;;;;;;8.43;4.97;;;14.90;83.30;;;;;;7388739;19;20443;-69
2023/09/30 05:59:14;;;;;;;7.03;4.10;;;14.90;79.10;;;;;;7391816;19;20014;-69
2023/09/30 06:01:46;;;;;;;9.00;4.60;;;15.00;72.40;;;;;;7390848;19;20478;-69
2023/09/30 06:04:16;;;;;;;7.38;5.22;;;15.10;70.00;;;;;;7389676;19;20014;-69
2023/09/30 06:06:46;;;;;;;9.25;5.70;;;15.10;64.90;;;;;;7388915;19;20360;-69
2023/09/30 06:09:18;;;;;;;11.95;5.10;;;15.10;58.20;;;;;;7390577;19;20038;-70
2023/09/30 06:11:48;;;;;;;9.60;5.60;;;15.20;58.90;;;;;;7390454;19;20026;-69
2023/09/30 06:14:18;;;;;;;11.63;5.20;;;15.10;50.90;;;;;;7397406;19;20022;-69
2023/09/30 06:16:49;;;;;;;11.50;5.20;;;15.10;49.40;;;;;;7397461;19;20018;-69
2023/09/30 06:19:21;;;;;;;8.90;5.18;;;15.20;49.60;;;;;;7399007;19;20010;-70
2023/09/30 06:21:51;;;;;;;11.98;6.32;;;15.30;48.70;;;;;;7392453;19;20426;-70
2023/09/30 06:24:23;;;;;;;9.18;5.07;;;15.30;40.10;;;;;;7390686;19;20031;-69
2023/09/30 06:26:53;;;;;;;7.65;5.47;;;15.50;41.50;;;;;;7388995;19;20011;-69
2023/09/30 06:29:23;;;;;;;11.05;5.50;;;15.50;27.90;;;;;;7390692;19;20102;-70
2023/09/30 06:31:53;;;;;;;9.25;5.57;;;15.40;31.50;;;;;;7390594;19;20015;-69
2023/09/30 06:34:23;;;;;;;7.63;5.50;;;15.40;35.20;;;;;;7391212;19;20084;-70
2023/09/30 06:36:53;;;;;;;10.43;5.30;;;15.40;38.00;;;;;;7389200;19;20039;-70
2023/09/30 06:39:26;;;;;;;9.55;5.57;;;15.40;35.00;;;;;;7389938;19;20431;-69
2023/09/30 06:41:56;;;;;;;7.97;5.32;;;15.50;29.70;;;;;;7387610;19;20042;-69
2023/09/30 06:44:28;;;;;;;11.32;5.50;;;15.60;24.80;;;;;;7388985;19;20011;-69
2023/09/30 06:46:58;;;;;;;8.88;5.60;;;15.60;21.30;;;;;;7387215;19;20022;-70
2023/09/30 06:49:28;;;;;;;9.65;5.07;;;15.80;22.70;;;;;;7389832;19;20014;-69
2023/09/30 06:51:58;;;;;;;8.95;5.47;;;16.00;14.00;;;;;;7388626;19;20103;-69
2023/09/30 06:54:30;;;;;;;7.57;4.88;;;15.70;12.30;;;;;;7388930;19;20093;-70
2023/09/30 06:57:00;;;;;;;8.23;5.32;;;15.90;12.20;;;;;;7390524;19;20014;-69
2023/09/30 06:59:30;;;;;;;10.02;5.97;;;15.90;13.70;;;;;;7396534;19;20074;-70
2023/09/30 07:02:00;;;;;;;7.93;5.10;;;15.90;12.40;;;;;;7395844;19;20336;-69
2023/09/30 07:04:32;;;;;;;8.18;4.70;;;16.00;9.70;;;;;;7395660;19;20011;-70
2023/09/30 07:07:02;;;;;;;11.32;5.35;;;16.10;6.60;;;;;;7393278;19;20599;-70
2023/09/30 07:09:34;;;;;;;9.77;5.80;;;16.20;8.00;;;;;;7395550;19;20078;-69
2023/09/30 07:12:04;;;;;;;14.23;4.97;;;16.10;1.00;;;;;;7395551;19;20375;-69
2023/09/30 07:14:34;;;;;;;8.57;5.07;;;16.20;2.30;;;;;;7395370;19;20435;-70
2023/09/30 07:17:04;;;;;;;8.02;4.50;;;16.40;2.30;;;;;;7393579;19;20100;-70
2023/09/30 07:19:34;;;;;;;9.55;4.95;;;16.50;1.00;;;;;;7396007;19;20027;-69
2023/09/30 07:22:05;;;;;;;10.45;5.50;;;16.60;1.00;;;;;;7394705;19;20430;-69
2023/09/30 07:24:39;;;;;;;9.63;5.35;;;16.50;1.00;;;;;;7393001;19;20011;-69
2023/09/30 07:27:09;;;;;;;11.45;5.57;;;16.20;1.00;;;;;;7395049;19;20017;-69
2023/09/30 07:29:56;;;;;;;8.63;5.43;;;16.30;1.00;;;;;;7395562;19;20018;-69
2023/09/30 07:32:26;;;;;;;11.95;5.57;;;16.40;1.00;;;;;;7394706;19;20014;-70
2023/09/30 07:34:57;;;;;;;9.07;5.60;;;16.30;1.00;;;;;;7394564;19;20089;-69
2023/09/30 07:37:27;;;;;;;10.27;5.55;;;16.40;1.00;;;;;;7393881;19;20010;-69
2023/09/30 07:40:01;;;;;;;10.80;5.90;;;16.60;1.00;;;;;;7395064;19;20018;-70
2023/09/30 07:42:30;;;;;;;11.93;6.03;;;16.70;1.00;;;;;;7395521;19;20035;-69
2023/09/30 07:45:00;;;;;;;10.52;5.93;;;16.90;1.00;;;;;;7394331;19;20014;-69
2023/09/30 07:47:30;;;;;;;8.05;5.18;;;16.80;1.00;;;;;;7394777;19;20415;-69
2023/09/30 07:50:02;;;;;;;8.60;5.63;;;16.70;1.00;;;;;;7395017;19;20014;-69
2023/09/30 07:52:32;;;;;;;10.65;5.40;;;16.90;1.00;;;;;;7395681;19;20025;-69
2023/09/30 07:55:05;;;;;;;8.32;4.97;;;16.90;1.00;;;;;;7393782;19;20021;-69
2023/09/30 07:57:35;;;;;;;10.27;4.95;;;17.10;1.00;;;;;;7394986;19;20011;-69
2023/09/30 08:00:08;;;;;;;9.85;5.40;;;17.30;1.00;;;;;;7394243;19;20049;-70
2023/09/30 08:02:40;;;;;;;9.30;4.50;;;17.40;1.00;;;;;;7395219;19;20038;-70
2023/09/30 08:05:11;;;;;;;11.18;5.28;;;17.50;1.00;;;;;;7392571;19;20007;-70
2023/09/30 08:07:42;;;;;;;8.45;5.53;;;17.60;1.00;;;;;;7391307;19;20015;-69
2023/09/30 08:10:16;;;;;;;9.90;5.85;;;17.30;1.00;;;;;;7393946;19;20014;-70
2023/09/30 08:12:48;;;;;;;10.95;5.45;;;17.40;1.00;;;;;;7394510;19;20029;-70
2023/09/30 08:15:18;;;;;;;7.70;4.90;;;17.30;1.00;;;;;;7392962;19;20007;-69
2023/09/30 08:17:49;;;;;;;8.60;4.50;;;17.50;1.00;;;;;;7392384;19;20090;-69
2023/09/30 08:20:19;;;;;;;6.85;5.13;;;17.40;1.00;;;;;;7393055;19;20010;-69
2023/09/30 08:22:49;;;;;;;7.55;4.95;;;17.30;1.00;;;;;;7393821;19;20086;-69
2023/09/30 08:25:24;;;;;;;8.60;4.43;;;17.30;1.00;;;;;;7390859;19;20013;-70
2023/09/30 08:27:54;;;;;;;7.88;5.65;;;17.30;1.00;;;;;;7393211;19;20758;-70
2023/09/30 08:30:24;;;;;;;10.30;5.15;;;17.00;1.00;;;;;;7393584;19;20462;-70
2023/09/30 08:32:54;;;;;;;8.55;5.20;;;16.70;1.00;;;;;;7393284;19;20022;-69
2023/09/30 08:35:24;;;;;;;7.25;5.00;;;17.00;1.00;;;;;;7392431;19;20015;-69
2023/09/30 08:37:54;;;;;;;12.15;5.05;;;17.10;1.00;;;;;;7393908;19;20030;-69
2023/09/30 08:40:27;;;;;;;10.02;4.68;;;17.00;1.00;;;;;;7390804;19;20042;-69
2023/09/30 08:42:57;;;;;;;10.45;5.50;;;17.10;1.00;;;;;;7393148;19;20084;-69
2023/09/30 08:45:30;;;;;;;10.30;4.85;;;17.40;1.00;;;;;;7391845;19;20032;-70
2023/09/30 08:48:05;;;;;;;9.50;5.45;;;17.50;1.00;;;;;;7393744;19;20035;-70
2023/09/30 08:50:36;;;;;;;;;;;17.40;1.00;;;;;;7392731;19;20475;-69
2023/09/30 08:53:06;;;;;;;7.90;5.05;;;17.50;1.00;;;;;;7393319;19;19915;-69
2023/09/30 08:55:40;;;;;;;10.13;4.95;;;17.60;1.00;;;;;;7391869;19;20025;-70
2023/09/30 08:58:10;;;;;;;10.73;4.95;;;17.60;1.00;;;;;;7393062;19;20010;-69
2023/09/30 09:00:41;;;;;;;10.18;4.65;;;17.80;1.00;;;;;;7391780;19;20019;-69
2023/09/30 09:03:11;;;;;;;13.18;6.13;;;18.00;1.00;;;;;;7393074;19;20466;-69
2023/09/30 09:05:41;;;;;;;10.98;5.25;;;18.20;1.00;;;;;;7390855;19;20010;-69
2023/09/30 09:08:11;;;;;;;10.52;5.13;;;18.50;1.00;;;;;;7394093;19;20027;-69
2023/09/30 09:10:56;;;;;;;8.10;4.50;;;18.10;1.00;;;;;;7391107;19;20020;-70
2023/09/30 09:13:27;;;;;;;9.38;5.78;;;18.30;1.00;;;;;;7391132;19;20018;-70
2023/09/30 09:16:10;;;;;;;11.85;6.03;;;18.30;1.00;;;;;;7390521;19;20014;-69
2023/09/30 09:18:41;;;;;;;7.18;4.65;;;18.70;1.00;;;;;;7392002;19;20022;-70
2023/09/30 09:21:12;;;;;;;10.45;4.80;;;18.50;1.00;;;;;;7389815;19;20018;-71
2023/09/30 09:23:47;;;;;;;7.75;4.55;;;18.80;1.00;;;;;;7391583;19;20027;-69
2023/09/30 09:26:30;;;;;;;8.50;4.32;;;18.60;1.00;;;;;;7389468;19;20501;-69
2023/09/30 09:28:58;;;;;;;9.05;4.63;;;18.70;1.00;;;;;;7391743;19;20032;-69
2023/09/30 09:31:30;;;;;;;9.30;5.45;;;18.70;1.00;;;;;;7391088;19;20025;-69
2023/09/30 09:34:02;;;;;;;10.05;4.90;;;18.70;1.00;;;;;;7391577;19;20018;-70
2023/09/30 09:36:41;;;;;;;6.40;4.70;;;18.90;1.00;;;;;;7390738;19;20047;-70
2023/09/30 09:39:13;;;;;;;9.02;4.68;;;18.30;1.00;;;;;;7389112;19;20022;-69
2023/09/30 09:41:57;;;;;;;10.57;4.88;;;18.40;1.00;;;;;;7390872;19;20018;-69
2023/09/30 09:44:27;;;;;;;13.40;4.90;;;18.50;1.00;;;;;;7396421;19;20022;-70
2023/09/30 09:47:00;;;;;;;9.73;4.53;;;18.60;1.00;;;;;;7399742;19;20018;-69
2023/09/30 09:49:31;;;;;;;8.98;4.72;;;19.00;1.00;;;;;;7392009;19;20014;-70
2023/09/30 09:52:03;;;;;;;11.85;5.22;;;19.10;1.00;;;;;;7390498;19;20017;-70
2023/09/30 09:54:34;;;;;;;7.55;4.40;;;19.50;1.00;;;;;;7390629;19;20507;-70
2023/09/30 09:57:12;;;;;;;9.75;4.93;;;19.40;1.00;;;;;;7389182;19;20023;-70
2023/09/30 09:59:43;;;;;;;11.00;4.88;;;19.20;1.00;;;;;;7390724;19;20031;-70
2023/09/30 10:02:14;;;;;;;8.38;4.45;;;19.20;1.00;;;;;;7390332;19;20395;-70
2023/09/30 10:04:45;;;;;;;10.35;4.57;;;19.30;1.00;;;;;;7390401;19;20018;-70
2023/09/30 10:07:22;;;;;;;5.75;3.75;;;19.40;1.00;;;;;;7389915;19;20405;-70
2023/09/30 10:09:55;;;;;;;6.15;3.60;;;19.70;1.00;;;;;;7390847;19;20373;-70
2023/09/30 10:12:28;;;;;;;8.88;4.07;;;19.20;1.00;;;;;;7389404;19;20302;-69
2023/09/30 10:14:58;;;;;;;7.43;3.97;;;19.30;1.00;;;;;;7388869;19;20056;-68
2023/09/30 10:17:58;;;;;;;9.48;4.30;;;19.10;1.00;;;;;;7389710;19;20716;-69
2023/09/30 10:20:30;;;;;;;7.43;4.15;;;19.10;1.00;;;;;;7389503;19;20099;-70
2023/09/30 10:23:24;;;;;;;9.00;4.30;;;18.90;1.00;;;;;;7390707;19;20521;-69
2023/09/30 10:25:57;;;;;;;11.57;4.10;;;18.80;1.00;;;;;;7388987;19;20026;-70
2023/09/30 10:28:46;;;;;;;7.65;3.67;;;18.90;1.00;;;;;;7387569;19;20510;-70
2023/09/30 10:31:21;;;;;;;8.68;4.03;;;18.50;1.00;;;;;;7389404;19;20034;-70
2023/09/30 10:34:20;;;;;;;8.57;4.07;;;18.60;1.00;;;;;;7395717;19;20086;-69
2023/09/30 10:36:52;;;;;;;8.23;4.53;;;18.60;1.00;;;;;;7395044;19;20044;-69
2023/09/30 10:39:53;;;;;;;8.15;4.70;;;19.10;1.00;;;;;;7396996;19;20122;-69
2023/09/30 10:42:49;;;;;;;6.93;4.00;;;19.50;1.00;;;;;;7395162;19;20050;-70
2023/09/30 10:45:48;;;;;;;6.95;4.00;;;19.80;1.00;;;;;;7394135;19;20110;-69
2023/09/30 10:48:37;;;;;;;8.93;4.95;;;20.00;1.00;;;;;;7395319;19;20039;-68
2023/09/30 10:51:15;;;;;;;9.68;3.85;;;20.30;1.00;;;;;;7395149;19;20026;-69
2023/09/30 10:53:51;;;;;;;6.95;4.00;;;20.50;1.00;;;;;;7395530;19;20006;-69
2023/09/30 10:56:22;;;;;;;6.97;3.90;;;20.60;1.00;;;;;;7393685;19;20460;-68
2023/09/30 10:58:53;;;;;;;6.38;3.85;;;20.00;1.00;;;;;;7394505;19;20014;-70
2023/09/30 11:01:26;;;;;;;7.07;4.20;;;20.00;1.00;;;;;;7395104;19;20018;-69
2023/09/30 11:04:03;;;;;;;7.75;3.50;;;19.90;1.00;;;;;;7394144;19;20042;-70
2023/09/30 11:06:34;;;;;;;11.68;4.50;;;20.30;1.00;;;;;;7393192;19;20023;-70
2023/09/30 11:09:08;;;;;;;7.53;4.28;;;20.30;1.00;;;;;;7394474;19;20110;-69
2023/09/30 11:11:39;;;;;;;;;;;20.20;1.00;;;;;;7394789;19;20024;-70
2023/09/30 11:14:22;;;;;;;7.20;4.22;;;20.00;1.00;;;;;;7394611;19;19939;-70
2023/09/30 11:17:01;;;;;;;8.82;3.53;;;20.50;1.00;;;;;;7393680;19;20372;-70
2023/09/30 11:19:39;;;;;;;6.00;3.40;;;20.60;1.00;;;;;;7393551;19;20031;-70
2023/09/30 11:22:09;;;;;;;7.57;3.15;;;20.60;1.00;;;;;;7393838;19;20017;-70
2023/09/30 11:24:39;;;;;;;7.95;3.90;;;20.60;1.00;;;;;;7394294;19;20019;-69
2023/09/30 11:27:09;;;;;;;7.18;3.25;;;20.60;1.00;;;;;;7393904;19;20116;-70
2023/09/30 11:29:39;;;;;;;6.75;3.45;;;20.70;1.00;;;;;;7394618;19;20031;-69
2023/09/30 11:32:26;;;;;;;7.95;4.18;;;20.50;1.00;;;;;;7393128;19;20025;-69
2023/09/30 11:34:57;;;;;;;8.50;4.70;;;20.60;1.00;;;;;;7394802;19;20028;-69
2023/09/30 11:37:33;;;;;;;8.80;4.43;;;20.40;1.00;;;;;;7393191;19;20344;-69
2023/09/30 11:40:17;;;;;;;6.78;3.95;;;20.30;1.00;;;;;;7394849;19;20516;-70
2023/09/30 11:43:11;;;;;;;7.60;3.47;;;20.90;1.00;;;;;;7394518;19;20573;-70
2023/09/30 11:45:41;;;;;;;7.07;3.33;;;20.50;1.00;;;;;;7393586;19;20014;-70
2023/09/30 11:48:22;;;;;;;5.57;3.47;;;20.00;1.00;;;;;;7393043;19;20278;-70
2023/09/30 11:50:52;;;;;;;8.20;3.97;;;20.30;1.00;;;;;;7392140;19;20046;-69
2023/09/30 11:53:23;;;;;;;7.97;3.95;;;20.20;1.00;;;;;;7394815;19;20014;-69
2023/09/30 11:55:54;;;;;;;7.60;3.90;;;20.20;1.00;;;;;;7392545;19;20397;-69
2023/09/30 11:58:24;;;;;;;7.95;3.88;;;20.30;1.00;;;;;;7394103;19;20017;-69
2023/09/30 12:00:57;;;;;;;5.93;3.45;;;20.10;1.00;;;;;;7393257;19;20015;-69
2023/09/30 12:03:30;;;;;;;6.63;3.65;;;20.60;1.00;;;;;;7393751;19;20022;-69
2023/09/30 12:06:00;;;;;;;10.52;4.28;;;20.90;1.00;;;;;;7392583;19;20018;-69
2023/09/30 12:08:31;;;;;;;7.70;3.95;;;20.70;1.00;;;;;;7393651;19;20014;-70
2023/09/30 12:11:02;;;;;;;9.80;4.15;;;20.80;1.00;;;;;;7393403;19;20015;-69
2023/09/30 12:13:32;;;;;;;6.93;3.65;;;21.10;1.00;;;;;;7395024;19;20027;-69
2023/09/30 12:16:02;;;;;;;9.75;3.85;;;21.00;1.00;;;;;;7390122;19;20024;-69
2023/09/30 12:18:36;;;;;;;8.10;3.95;;;21.00;1.00;;;;;;7391711;19;20043;-69
2023/09/30 12:21:07;;;;;;;7.82;4.07;;;21.20;1.00;;;;;;7390429;19;20354;-69
2023/09/30 12:23:37;;;;;;;7.85;4.20;;;20.70;1.00;;;;;;7391390;19;20031;-69
2023/09/30 12:26:07;;;;;;;7.68;3.92;;;21.20;1.00;;;;;;7392012;19;20018;-70
2023/09/30 12:28:44;;;;;;;6.35;3.63;;;21.30;1.00;;;;;;7392890;19;20039;-70
2023/09/30 12:31:15;;;;;;;8.75;4.30;;;21.00;1.00;;;;;;7392129;19;20031;-69
2023/09/30 12:33:51;;;;;;;8.10;4.30;;;21.20;1.00;;;;;;7392271;19;20026;-69
2023/09/30 12:36:21;;;;;;;7.80;4.28;;;20.90;1.00;;;;;;7392421;19;20015;-70
2023/09/30 12:38:51;;;;;;;7.28;4.05;;;20.90;1.00;;;;;;7391386;19;20086;-69
2023/09/30 12:41:21;;;;;;;9.23;4.20;;;20.80;1.00;;;;;;7390034;19;20474;-69
2023/09/30 12:43:51;;;;;;;7.25;4.05;;;21.00;1.00;;;;;;7391369;19;20385;-69
2023/09/30 12:46:21;;;;;;;7.80;3.90;;;20.80;1.00;;;;;;7392270;19;20015;-70
2023/09/30 12:48:54;;;;;;;8.63;4.18;;;20.70;1.00;;;;;;7391976;19;20017;-69
2023/09/30 12:51:25;;;;;;;9.52;4.30;;;21.00;1.00;;;;;;7392380;19;20499;-70
2023/09/30 12:53:55;;;;;;;6.88;4.22;;;20.70;1.00;;;;;;7389848;19;20014;-68
2023/09/30 12:56:25;;;;;;;9.15;4.45;;;20.80;1.00;;;;;;7391701;19;20022;-69
2023/09/30 12:58:55;;;;;;;7.57;3.85;;;20.50;1.00;;;;;;7391831;19;20086;-69
2023/09/30 13:01:25;;;;;;;9.80;4.32;;;20.50;1.00;;;;;;7391226;19;20078;-69
2023/09/30 13:03:58;;;;;;;8.27;3.97;;;20.40;1.00;;;;;;7388437;19;20485;-69
2023/09/30 13:06:28;;;;;;;8.13;4.40;;;20.40;1.00;;;;;;7390133;19;20014;-70
2023/09/30 13:08:59;;;;;;;7.50;3.90;;;20.30;1.00;;;;;;7391123;19;20019;-70
2023/09/30 13:11:29;;;;;;;8.68;4.07;;;20.40;1.00;;;;;;7391142;19;20025;-69
2023/09/30 13:13:59;;;;;;;7.00;4.25;;;20.60;1.00;;;;;;7390657;19;20030;-69
2023/09/30 13:16:29;;;;;;;8.00;4.30;;;20.60;1.00;;;;;;7390812;19;20106;-69